Smithville, MS

9:02 AM CST on January 29, 2015 (GMT -0600)
APRSWXNET Amory MS US | Change Station
CLOSE
Current Station
Personal Weather Station
Location: Becker, MS
Elevation: 242 ft
Nearby Weather Stations

Elev 242 ft 33.98 °N, 88.49 °W | Updated 32 minutes ago

Overcast
Overcast
50 °F
Feels Like 46 °F
N
9
Wind Variable Wind from South
Gusts 14.0 mph

Today
High -- | Low -- °F
--% Chance of Precip.
Yesterday
High -- | Low -- °F
Precip. -- in
6:52 AM 5:20 PM
Waxing Gibbous, 75% visible
Pressure 30.19 in
Visibility 9.0 miles
Clouds Few 10000 ft
Windchill 46 °F
Dew Point 38 °F
Humidity 64%
Rainfall 0.00 in
Snow Depth Not available.
UV 1 out of 12
Pollen 3.60 out of 12
Air Quality Not available.
Flu Activity Not available.
METAR KM40 291455Z AUTO 18010KT 9SM FEW100 11/02 A3019 RMK AO2

More Conditions Fewer Conditions

Pressure 30.19 in
Visibility 9.0 miles
Clouds Few 10000 ft
Windchill 46 °F
Dew Point 38 °F
Humidity 64%
Rainfall 0.00 in
Snow Depth Not available.
UV 1 out of 12
Pollen 3.60 out of 12
Air Quality Not available.
Flu Activity Not available.
METAR KM40 291455Z AUTO 18010KT 9SM FEW100 11/02 A3019 RMK AO2

More Conditions Fewer Conditions

10-Day Weather Forecast

Almanac

Astronomy

Jan. 29, 2015 Rise Set
Actual Time
Civil Twilight
Nautical Twilight
Astronomical Twilight
Moon
Length of Visible Light
Length of Day
Tomorrow will be .
, % of the Moon is Illuminated

Today's Extremes

State Highs State Lows

Community

WunderPhotos

Upload Photos

1,791,450 photos uploaded!

WunderBlogs® & News

Nearby

Air Quality

  Air Quality AQ Index Pollutant
Not available.

Snow Depth

Station Depth Elevation

Earthquake Activity

City Distance Mag. Time & Date
Minimum magnitude displayed is 2.5.

Coastal Water Temperatures

Place Temperature

Nearby Weather Stations